Time;durP1;ratioP1;P1;durP2;ratioP2;P2;SDS_P1;SDS_P2;PMS_P1;PMS_P2;Temp;Humidity;BMP_temperature;BMP_pressure;BME280_temperature;BME280_humidity;BME280_pressure;Samples;Min_cycle;Max_cycle;Signal;HPM_P1;HPM_P2
2022/01/16 00:00:46;;;;;;;48.05;20.33;;;3.30;99.90;;;;;;5088184;27;20043;-71
2022/01/16 00:05:56;;;;;;;37.40;16.98;;;3.20;99.90;;;;;;5128222;27;20043;-71
2022/01/16 00:08:22;;;;;;;43.72;18.65;;;3.50;99.90;;;;;;5125273;27;20031;-71
2022/01/16 00:10:48;;;;;;;39.00;16.40;;;3.60;99.90;;;;;;5115800;27;20080;-71
2022/01/16 00:13:13;;;;;;;41.83;18.10;;;3.50;99.90;;;;;;5101118;27;20043;-71
2022/01/16 00:15:39;;;;;;;41.35;17.77;;;3.50;99.90;;;;;;5109091;27;20491;-71
2022/01/16 00:20:31;;;;;;;41.17;19.52;;;3.30;99.90;;;;;;5114564;27;20441;-71
2022/01/16 00:22:58;;;;;;;41.83;19.48;;;3.30;99.90;;;;;;5097132;27;20506;-71
2022/01/16 00:25:24;;;;;;;42.33;19.42;;;3.10;99.90;;;;;;5098679;27;20027;-71
2022/01/16 00:27:50;;;;;;;44.58;20.92;;;2.80;99.90;;;;;;5115219;27;20058;-71
2022/01/16 00:30:17;;;;;;;47.28;20.63;;;2.70;99.90;;;;;;5125415;27;20062;-71
2022/01/16 00:32:43;;;;;;;46.40;21.27;;;2.70;99.90;;;;;;5115737;27;20456;-71
2022/01/16 00:35:09;;;;;;;42.80;18.80;;;2.80;99.90;;;;;;5096113;28;20066;-71
2022/01/16 00:37:34;;;;;;;48.75;21.70;;;2.90;99.90;;;;;;5095910;28;20035;-71
2022/01/16 00:40:00;;;;;;;44.88;21.05;;;2.90;99.90;;;;;;5108457;27;20058;-71
2022/01/16 00:42:26;;;;;;;40.85;18.52;;;2.80;99.90;;;;;;5116008;27;20067;-71
2022/01/16 00:44:51;;;;;;;39.58;17.88;;;2.70;99.90;;;;;;5115567;27;20050;-71
2022/01/16 00:47:17;;;;;;;39.10;19.40;;;2.90;99.90;;;;;;5115919;27;20505;-71
2022/01/16 00:49:44;;;;;;;38.88;17.35;;;3.20;99.90;;;;;;5113161;27;20091;-71
2022/01/16 00:52:10;;;;;;;37.15;16.58;;;3.10;99.90;;;;;;5098970;27;20126;-71
2022/01/16 00:54:37;;;;;;;39.40;18.38;;;3.20;99.90;;;;;;5097920;27;20050;-71
2022/01/16 00:57:03;;;;;;;45.03;20.05;;;3.20;99.90;;;;;;5099171;27;20039;-71
2022/01/16 00:59:29;;;;;;;38.45;17.63;;;3.10;99.90;;;;;;5104353;27;20096;-71
2022/01/16 01:01:54;;;;;;;42.22;19.67;;;3.10;99.90;;;;;;5115236;27;20519;-71
2022/01/16 01:04:20;;;;;;;39.28;19.30;;;3.20;99.90;;;;;;5101072;28;20101;-71
2022/01/16 01:06:50;;;;;;;40.65;20.17;;;3.00;99.90;;;;;;5095476;28;20168;-71
2022/01/16 01:09:16;;;;;;;42.78;22.15;;;2.80;99.90;;;;;;5095729;28;20403;-71
2022/01/16 01:11:45;;;;;;;40.63;19.52;;;2.70;99.90;;;;;;5098314;28;20046;-71
2022/01/16 01:14:20;;;;;;;42.40;19.73;;;2.60;99.90;;;;;;5114550;28;20043;-71
2022/01/16 01:16:51;;;;;;;41.65;19.92;;;2.50;99.90;;;;;;5114966;28;20046;-71
2022/01/16 01:19:18;;;;;;;40.90;19.60;;;2.60;99.90;;;;;;5113938;28;20039;-71
2022/01/16 01:21:44;;;;;;;42.05;21.15;;;2.50;99.90;;;;;;5115278;28;20104;-71
2022/01/16 01:24:09;;;;;;;41.90;21.58;;;2.40;99.90;;;;;;5095892;28;20035;-71
2022/01/16 01:26:43;;;;;;;43.55;19.92;;;2.50;99.90;;;;;;5078794;28;20027;-71
2022/01/16 01:29:09;;;;;;;42.88;20.98;;;2.40;99.90;;;;;;5097257;28;20031;-71
2022/01/16 01:31:34;;;;;;;45.05;22.17;;;2.40;99.90;;;;;;5099352;28;20039;-71
2022/01/16 01:34:00;;;;;;;47.22;21.85;;;2.30;99.90;;;;;;5114553;28;20093;-71
2022/01/16 01:36:25;;;;;;;43.58;21.02;;;2.40;99.90;;;;;;5098656;28;20043;-71
2022/01/16 01:38:51;;;;;;;48.60;22.83;;;2.50;99.90;;;;;;5097343;28;20055;-71
2022/01/16 01:41:19;;;;;;;50.00;22.55;;;2.50;99.90;;;;;;5114384;28;20051;-71
2022/01/16 01:51:44;;;;;;;47.83;21.67;;;2.60;99.90;;;;;;5114538;28;20047;-71
2022/01/16 01:54:12;;;;;;;50.87;23.30;;;2.70;99.90;;;;;;5102027;28;20035;-71
2022/01/16 01:56:39;;;;;;;49.33;22.02;;;2.60;99.90;;;;;;5078456;28;20637;-71
2022/01/16 01:59:07;;;;;;;53.05;24.10;;;2.50;99.90;;;;;;5092758;28;20058;-71
2022/01/16 02:01:33;;;;;;;58.55;25.50;;;2.50;99.90;;;;;;5119012;28;20047;-71
2022/01/16 02:03:59;;;;;;;53.28;24.05;;;2.40;99.90;;;;;;5097519;28;20103;-71
2022/01/16 02:06:27;;;;;;;53.85;23.42;;;2.30;99.90;;;;;;5115296;28;20027;-71
2022/01/16 02:08:58;;;;;;;52.00;22.58;;;2.60;99.90;;;;;;5106200;28;20043;-71
2022/01/16 02:11:28;;;;;;;55.50;24.05;;;2.70;99.90;;;;;;5106930;28;20046;-71
2022/01/16 02:14:01;;;;;;;52.92;23.73;;;2.60;99.90;;;;;;5100684;27;20047;-71
2022/01/16 02:33:21;;;;;;;52.63;24.50;;;2.90;99.90;;;;;;5118888;27;20035;-71
2022/01/16 02:35:42;;;;;;;53.65;23.48;;;3.00;99.90;;;;;;5115720;27;20092;-71
2022/01/16 02:38:09;;;;;;;59.05;25.13;;;3.00;99.90;;;;;;5098149;27;20077;-71
2022/01/16 02:40:36;;;;;;;54.00;22.80;;;3.00;99.90;;;;;;5099920;27;20133;-71
2022/01/16 02:43:03;;;;;;;52.25;24.77;;;2.90;99.90;;;;;;5101399;27;20070;-71
2022/01/16 02:45:31;;;;;;;57.67;25.35;;;2.80;99.90;;;;;;5100225;27;20030;-71
2022/01/16 02:48:02;;;;;;;53.83;25.23;;;2.90;99.90;;;;;;5118367;27;20092;-71
2022/01/16 02:50:28;;;;;;;61.07;26.80;;;2.90;99.90;;;;;;5116914;27;20067;-71
2022/01/16 02:52:54;;;;;;;60.15;27.27;;;2.80;99.90;;;;;;5099159;27;20382;-71
2022/01/16 02:55:21;;;;;;;56.15;25.40;;;2.90;99.90;;;;;;5117349;27;20039;-71
2022/01/16 02:57:52;;;;;;;56.50;25.65;;;3.00;99.90;;;;;;5108180;27;20065;-71
2022/01/16 03:00:19;;;;;;;65.22;28.05;;;2.90;99.90;;;;;;5118641;27;20042;-71
2022/01/16 03:02:44;;;;;;;63.38;27.10;;;2.90;99.90;;;;;;5117923;27;20039;-71
2022/01/16 03:05:12;;;;;;;61.08;24.48;;;2.90;99.90;;;;;;5127743;27;20041;-72
2022/01/16 03:07:37;;;;;;;61.42;26.45;;;3.00;99.90;;;;;;5104079;27;20035;-71
2022/01/16 03:12:53;;;;;;;62.45;26.05;;;3.00;99.90;;;;;;5135055;27;20107;-71
2022/01/16 03:15:19;;;;;;;61.40;25.83;;;3.00;99.90;;;;;;5122007;27;20039;-71
2022/01/16 03:23:23;;;;;;;58.38;25.67;;;3.10;99.90;;;;;;5132593;27;20285;-71
2022/01/16 03:25:50;;;;;;;53.38;24.13;;;3.20;99.90;;;;;;5112163;27;20031;-71
2022/01/16 03:28:17;;;;;;;57.13;25.45;;;3.30;99.90;;;;;;5117601;27;20031;-71
2022/01/16 03:30:43;;;;;;;59.97;25.83;;;3.20;99.90;;;;;;5133419;27;20126;-71
2022/01/16 03:33:09;;;;;;;56.08;22.60;;;3.20;99.90;;;;;;5117535;27;20073;-71
2022/01/16 03:35:35;;;;;;;57.67;23.98;;;3.20;99.90;;;;;;5125977;27;20548;-71
2022/01/16 03:38:01;;;;;;;62.38;25.35;;;3.20;99.90;;;;;;5134858;27;20584;-71
2022/01/16 03:40:26;;;;;;;56.10;23.23;;;3.20;99.90;;;;;;5115220;27;20083;-71
2022/01/16 03:42:52;;;;;;;55.25;23.23;;;3.30;99.90;;;;;;5104297;27;20500;-71
2022/01/16 03:45:18;;;;;;;52.83;21.98;;;3.30;99.90;;;;;;5103252;27;20302;-71
2022/01/16 03:47:44;;;;;;;57.47;22.55;;;3.30;99.90;;;;;;5087948;27;20414;-71
2022/01/16 03:50:10;;;;;;;55.70;22.17;;;3.30;99.90;;;;;;5111228;27;20081;-71
2022/01/16 03:52:36;;;;;;;61.20;25.08;;;3.30;99.90;;;;;;5124054;27;20391;-71
2022/01/16 03:55:03;;;;;;;60.63;25.35;;;3.30;99.90;;;;;;5129386;27;20076;-71
2022/01/16 03:57:29;;;;;;;61.35;24.77;;;3.20;99.90;;;;;;5129456;27;20043;-71
2022/01/16 03:59:54;;;;;;;65.18;26.48;;;3.20;99.90;;;;;;5116908;27;20372;-71
2022/01/16 04:02:20;;;;;;;65.20;25.40;;;3.20;99.90;;;;;;5131958;27;20510;-71
2022/01/16 04:04:46;;;;;;;62.80;26.30;;;3.20;99.90;;;;;;5116974;27;20501;-71
2022/01/16 04:07:17;;;;;;;58.88;25.42;;;3.30;99.90;;;;;;5115998;27;20038;-71
2022/01/16 04:09:42;;;;;;;56.90;25.17;;;3.30;99.90;;;;;;5131599;27;20084;-71
2022/01/16 04:12:09;;;;;;;62.10;26.05;;;3.30;99.90;;;;;;5133849;27;20043;-71
2022/01/16 04:17:15;;;;;;;58.00;21.90;;;3.30;99.90;;;;;;5133852;27;20057;-71
2022/01/16 04:19:42;;;;;;;58.88;23.73;;;3.40;99.90;;;;;;5115280;27;20050;-71
2022/01/16 04:22:07;;;;;;;47.88;17.88;;;3.40;99.90;;;;;;5128671;27;20039;-71
2022/01/16 04:24:34;;;;;;;53.83;23.63;;;3.40;99.90;;;;;;5115718;27;20501;-71
2022/01/16 04:27:00;;;;;;;57.33;22.60;;;3.40;99.90;;;;;;5133514;27;20031;-71
2022/01/16 04:29:25;;;;;;;54.45;22.15;;;3.30;99.90;;;;;;5130379;27;20118;-71
2022/01/16 04:31:51;;;;;;;61.42;24.67;;;3.40;99.90;;;;;;5120057;27;20118;-70
2022/01/16 04:34:17;;;;;;;59.10;23.60;;;3.30;99.90;;;;;;5114997;27;20045;-71
2022/01/16 04:36:42;;;;;;;57.13;20.73;;;3.20;99.90;;;;;;5112604;27;20039;-71
2022/01/16 04:39:15;;;;;;;62.85;22.52;;;3.30;99.90;;;;;;5111589;27;20049;-71
2022/01/16 04:44:26;;;;;;;58.95;24.27;;;3.40;99.90;;;;;;5116159;27;20039;-71
2022/01/16 04:46:53;;;;;;;56.55;24.48;;;3.40;99.90;;;;;;5121016;27;20092;-71
2022/01/16 04:49:19;;;;;;;54.28;21.23;;;3.40;99.90;;;;;;5115319;27;20118;-70
2022/01/16 04:51:44;;;;;;;63.60;22.85;;;3.50;99.90;;;;;;5110918;27;20113;-71
2022/01/16 04:54:10;;;;;;;62.90;22.00;;;3.50;99.90;;;;;;5130171;27;20071;-71
2022/01/16 04:56:35;;;;;;;62.70;20.63;;;3.50;99.90;;;;;;5133294;27;20116;-71
2022/01/16 04:59:01;;;;;;;60.63;22.73;;;3.50;99.90;;;;;;5127366;27;20054;-71
2022/01/16 05:01:27;;;;;;;61.65;24.23;;;3.50;99.90;;;;;;5133186;27;20411;-71
2022/01/16 05:03:53;;;;;;;57.40;23.10;;;3.60;99.90;;;;;;5114613;27;20039;-71
2022/01/16 05:06:20;;;;;;;56.85;22.40;;;3.60;99.90;;;;;;5116038;27;20031;-71
2022/01/16 05:08:46;;;;;;;44.33;18.35;;;3.60;99.90;;;;;;5114474;27;20076;-71
2022/01/16 05:11:14;;;;;;;62.15;23.10;;;3.60;99.90;;;;;;5112446;28;20403;-71
2022/01/16 05:18:51;;;;;;;59.15;21.20;;;3.60;99.90;;;;;;5132794;28;20126;-71
2022/01/16 05:21:16;;;;;;;57.75;21.98;;;3.60;99.90;;;;;;5131104;28;20103;-71
2022/01/16 05:23:42;;;;;;;59.17;22.95;;;3.60;99.90;;;;;;5113194;28;20547;-71
2022/01/16 05:26:09;;;;;;;62.33;23.25;;;3.60;99.90;;;;;;5132698;28;20039;-70
2022/01/16 05:28:35;;;;;;;64.88;24.00;;;3.60;99.90;;;;;;5112651;28;20039;-71
2022/01/16 05:31:01;;;;;;;56.35;20.35;;;3.60;99.90;;;;;;5115694;28;20046;-71
2022/01/16 05:33:27;;;;;;;61.17;24.15;;;3.70;99.90;;;;;;5129987;28;20499;-71
2022/01/16 05:35:52;;;;;;;58.45;20.70;;;3.70;99.90;;;;;;5119537;28;20035;-71
2022/01/16 05:38:18;;;;;;;61.33;22.88;;;3.70;99.90;;;;;;5107910;28;20080;-71
2022/01/16 05:40:44;;;;;;;56.80;23.33;;;3.70;99.90;;;;;;5126257;28;20051;-71
2022/01/16 05:43:11;;;;;;;59.97;24.33;;;3.70;99.90;;;;;;5113657;28;20042;-71
2022/01/16 05:45:36;;;;;;;56.35;22.20;;;3.70;99.90;;;;;;5112040;28;20036;-71
2022/01/16 05:48:02;;;;;;;58.38;22.38;;;3.70;99.90;;;;;;5098515;27;20031;-71
2022/01/16 05:50:28;;;;;;;63.17;24.02;;;3.80;99.90;;;;;;5105316;27;20043;-71
2022/01/16 05:52:54;;;;;;;65.38;25.73;;;3.70;99.90;;;;;;5110100;27;20118;-71
2022/01/16 05:55:20;;;;;;;58.75;24.08;;;3.80;99.90;;;;;;5116945;27;20035;-71
2022/01/16 05:57:46;;;;;;;59.50;21.88;;;3.80;99.90;;;;;;5116313;27;20043;-70
2022/01/16 06:00:14;;;;;;;62.40;25.38;;;3.80;99.90;;;;;;5122650;27;20031;-71
2022/01/16 06:02:40;;;;;;;65.15;25.95;;;3.90;99.90;;;;;;5117819;27;20047;-71
2022/01/16 06:05:07;;;;;;;57.42;22.75;;;3.80;99.90;;;;;;5126249;27;20497;-71
2022/01/16 06:07:33;;;;;;;59.60;24.05;;;3.80;99.90;;;;;;5113756;27;20031;-71
2022/01/16 06:09:58;;;;;;;56.17;22.90;;;3.90;99.90;;;;;;5102541;27;20035;-71
2022/01/16 06:12:24;;;;;;;63.65;24.08;;;3.80;99.90;;;;;;5136238;27;20058;-71
2022/01/16 06:14:50;;;;;;;53.67;23.40;;;3.90;99.90;;;;;;5117775;27;20415;-71
2022/01/16 06:17:16;;;;;;;50.25;20.95;;;3.90;99.90;;;;;;5119108;27;20042;-71
2022/01/16 06:19:41;;;;;;;68.10;25.73;;;3.90;99.90;;;;;;5113876;27;20118;-71
2022/01/16 06:22:07;;;;;;;62.00;22.70;;;3.90;99.90;;;;;;5117074;27;20402;-71
2022/01/16 06:24:32;;;;;;;60.33;26.63;;;4.00;99.90;;;;;;5118258;27;20039;-71
2022/01/16 06:26:58;;;;;;;48.58;20.65;;;3.90;99.90;;;;;;5132644;27;20543;-71
2022/01/16 06:29:25;;;;;;;62.63;25.10;;;3.90;99.90;;;;;;5134821;27;20080;-71
2022/01/16 06:31:50;;;;;;;54.83;22.38;;;4.10;99.90;;;;;;5119008;27;20035;-71
2022/01/16 06:34:16;;;;;;;64.05;27.27;;;4.10;99.90;;;;;;5117651;27;20027;-71
2022/01/16 06:36:41;;;;;;;72.22;28.70;;;4.00;99.90;;;;;;5135686;27;20184;-71
2022/01/16 06:39:10;;;;;;;62.30;23.85;;;4.00;99.90;;;;;;5134868;27;20061;-71
2022/01/16 06:41:36;;;;;;;59.05;24.30;;;4.00;99.90;;;;;;5132832;27;20471;-71
2022/01/16 06:44:02;;;;;;;49.72;20.80;;;4.00;99.90;;;;;;5118762;27;20043;-71
2022/01/16 06:46:28;;;;;;;62.95;25.35;;;4.10;99.90;;;;;;5134085;27;20042;-71
2022/01/16 06:48:54;;;;;;;67.70;26.73;;;4.00;99.90;;;;;;5116577;27;20031;-71
2022/01/16 06:51:21;;;;;;;68.50;28.75;;;4.00;99.90;;;;;;5135732;27;20070;-71
2022/01/16 06:53:48;;;;;;;64.72;25.25;;;3.90;99.90;;;;;;5131846;27;20074;-71
2022/01/16 06:56:15;;;;;;;64.82;24.42;;;4.00;99.90;;;;;;5126935;27;20046;-71
2022/01/16 06:58:40;;;;;;;62.47;25.23;;;4.10;99.90;;;;;;5116835;27;20050;-71
2022/01/16 07:01:06;;;;;;;65.47;24.48;;;4.10;99.90;;;;;;5113096;27;20047;-71
2022/01/16 07:03:32;;;;;;;61.42;25.65;;;4.20;99.90;;;;;;5098975;27;20038;-71
2022/01/16 07:05:59;;;;;;;65.82;27.08;;;4.20;99.90;;;;;;5105976;27;20425;-71
2022/01/16 07:08:26;;;;;;;60.45;25.40;;;4.30;99.90;;;;;;5115869;27;20071;-71
2022/01/16 07:10:54;;;;;;;49.20;20.00;;;4.20;99.90;;;;;;5125879;27;20039;-71
2022/01/16 07:13:21;;;;;;;56.50;23.25;;;4.30;99.90;;;;;;5131010;27;20092;-71
2022/01/16 07:15:47;;;;;;;61.88;24.10;;;4.20;99.90;;;;;;5117889;27;20035;-71
2022/01/16 07:18:13;;;;;;;61.45;26.80;;;4.40;99.90;;;;;;5134119;27;20043;-71
2022/01/16 07:20:38;;;;;;;64.32;25.75;;;4.40;99.90;;;;;;5117682;27;20122;-71
2022/01/16 07:23:04;;;;;;;66.50;26.73;;;4.40;99.90;;;;;;5109175;27;20035;-71
2022/01/16 07:25:30;;;;;;;74.47;29.63;;;4.40;99.90;;;;;;5082122;27;20420;-71
2022/01/16 07:27:55;;;;;;;83.22;33.42;;;4.20;99.90;;;;;;5092127;28;20035;-71
2022/01/16 07:30:21;;;;;;;81.75;30.65;;;4.10;99.90;;;;;;5079137;28;20031;-71
2022/01/16 07:32:47;;;;;;;67.75;27.33;;;4.10;99.90;;;;;;5079590;28;20131;-71
2022/01/16 07:35:12;;;;;;;70.13;27.60;;;4.20;99.90;;;;;;5095881;28;20271;-71
2022/01/16 07:37:38;;;;;;;67.18;28.75;;;4.40;99.90;;;;;;5095838;28;20074;-72
2022/01/16 07:40:04;;;;;;;68.10;29.70;;;4.40;99.90;;;;;;5106470;27;20058;-71
2022/01/16 07:42:30;;;;;;;67.28;28.45;;;4.50;99.90;;;;;;5116082;27;20051;-71
2022/01/16 07:44:55;;;;;;;75.55;29.50;;;4.50;99.90;;;;;;5099187;27;20112;-71
2022/01/16 07:47:21;;;;;;;67.95;24.48;;;4.50;99.90;;;;;;5112188;27;20043;-71
2022/01/16 07:49:46;;;;;;;62.25;26.00;;;4.60;99.90;;;;;;5103544;27;20118;-71
2022/01/16 07:52:12;;;;;;;69.60;26.95;;;4.60;99.90;;;;;;5114399;27;20039;-71
2022/01/16 07:54:37;;;;;;;68.05;28.85;;;4.60;99.90;;;;;;5098840;27;20039;-71
2022/01/16 07:57:04;;;;;;;70.63;30.38;;;4.50;99.90;;;;;;5097798;27;20070;-71
2022/01/16 07:59:30;;;;;;;81.55;32.20;;;4.60;99.90;;;;;;5121345;27;20046;-71
2022/01/16 08:01:55;;;;;;;72.57;30.67;;;4.40;99.90;;;;;;5096539;27;20114;-72
2022/01/16 08:04:21;;;;;;;76.13;31.52;;;4.40;99.90;;;;;;5110835;27;20487;-71
2022/01/16 08:06:46;;;;;;;73.65;28.63;;;4.50;99.90;;;;;;5113101;27;20031;-71
2022/01/16 08:09:12;;;;;;;67.65;27.85;;;4.50;99.90;;;;;;5114617;27;20046;-71
2022/01/16 08:11:38;;;;;;;74.80;31.20;;;4.70;99.90;;;;;;5114148;27;20414;-71
2022/01/16 08:14:03;;;;;;;56.28;23.08;;;4.70;99.90;;;;;;5114797;27;20043;-71
2022/01/16 08:16:29;;;;;;;74.88;31.90;;;4.70;99.90;;;;;;5112678;27;20036;-71
2022/01/16 08:18:55;;;;;;;74.03;30.85;;;4.70;99.90;;;;;;5113317;27;20043;-71
2022/01/16 08:21:20;;;;;;;71.05;28.88;;;4.60;99.90;;;;;;5112439;27;20072;-71
2022/01/16 08:23:46;;;;;;;67.20;27.60;;;4.80;99.90;;;;;;5098186;27;20107;-68
2022/01/16 08:26:11;;;;;;;67.70;31.42;;;4.90;99.90;;;;;;5111180;27;20451;-69
2022/01/16 08:28:37;;;;;;;86.72;33.63;;;4.80;99.90;;;;;;5111863;27;20047;-69
2022/01/16 08:31:02;;;;;;;77.38;31.42;;;4.60;99.90;;;;;;5108671;27;20551;-70
2022/01/16 08:33:28;;;;;;;62.17;30.35;;;4.60;99.90;;;;;;5098568;27;20341;-68
2022/01/16 08:35:54;;;;;;;61.30;26.90;;;4.90;99.90;;;;;;5113709;27;20039;-68
2022/01/16 08:38:22;;;;;;;65.22;26.23;;;5.10;99.90;;;;;;5115075;27;20068;-68
2022/01/16 08:40:47;;;;;;;68.05;28.75;;;5.20;99.90;;;;;;5097289;27;20046;-72
2022/01/16 08:43:13;;;;;;;72.75;32.25;;;5.10;99.90;;;;;;5111840;27;20050;-72
2022/01/16 08:45:40;;;;;;;67.32;29.05;;;5.00;99.90;;;;;;5098032;27;20487;-72
2022/01/16 08:48:08;;;;;;;61.55;29.73;;;5.00;99.90;;;;;;5111807;27;20038;-72
2022/01/16 08:50:35;;;;;;;72.30;31.67;;;5.10;99.90;;;;;;5096193;27;20045;-72
2022/01/16 08:53:01;;;;;;;58.00;28.73;;;5.10;99.90;;;;;;5087090;28;20040;-72
2022/01/16 08:55:27;;;;;;;55.72;27.15;;;5.10;99.90;;;;;;5079046;28;20054;-72
2022/01/16 08:57:52;;;;;;;56.85;28.98;;;5.30;99.90;;;;;;5097960;27;20486;-72
2022/01/16 09:00:18;;;;;;;62.50;28.73;;;5.20;99.90;;;;;;5113832;27;20095;-72
2022/01/16 09:02:44;;;;;;;61.72;28.63;;;5.20;99.90;;;;;;5097742;28;20552;-72
2022/01/16 09:05:10;;;;;;;58.75;29.45;;;5.20;99.90;;;;;;5096945;27;20086;-72
2022/01/16 09:07:36;;;;;;;62.83;27.75;;;5.10;99.90;;;;;;5095844;28;20035;-72
2022/01/16 09:10:03;;;;;;;60.05;30.08;;;5.20;99.90;;;;;;5108915;28;20396;-72
2022/01/16 09:12:33;;;;;;;52.00;26.88;;;5.20;99.90;;;;;;5098251;27;20031;-72
2022/01/16 09:14:59;;;;;;;52.95;28.33;;;5.30;99.90;;;;;;5123574;28;20068;-72
2022/01/16 09:17:24;;;;;;;59.35;28.92;;;5.40;99.90;;;;;;5108386;28;20039;-72
2022/01/16 09:19:50;;;;;;;62.45;29.35;;;5.30;99.90;;;;;;5097649;28;20087;-72
2022/01/16 09:22:16;;;;;;;54.25;27.27;;;5.30;99.90;;;;;;5113752;28;20036;-72
2022/01/16 09:24:42;;;;;;;55.60;28.45;;;5.30;99.90;;;;;;5100780;27;20037;-72
2022/01/16 09:27:07;;;;;;;50.08;28.25;;;5.40;99.90;;;;;;5117049;27;20387;-72
2022/01/16 09:29:33;;;;;;;45.42;24.15;;;5.40;99.90;;;;;;5119352;27;20031;-72
2022/01/16 09:31:59;;;;;;;46.45;24.92;;;5.60;99.90;;;;;;5100602;27;20510;-72
2022/01/16 09:34:25;;;;;;;47.67;26.45;;;5.70;99.90;;;;;;5102007;27;20440;-72
2022/01/16 09:36:50;;;;;;;46.88;24.27;;;5.60;99.90;;;;;;5116671;27;20035;-72
2022/01/16 09:39:16;;;;;;;38.75;20.75;;;5.70;99.90;;;;;;5101498;27;20503;-72
2022/01/16 09:41:42;;;;;;;48.20;26.92;;;5.70;99.90;;;;;;5118966;27;20074;-72
2022/01/16 09:44:08;;;;;;;47.58;25.20;;;5.70;99.90;;;;;;5135652;27;20039;-72
2022/01/16 09:46:35;;;;;;;45.55;24.95;;;5.70;99.90;;;;;;5095365;27;20128;-72
2022/01/16 09:49:01;;;;;;;52.03;26.38;;;5.80;99.90;;;;;;5100575;27;20035;-72
2022/01/16 09:51:27;;;;;;;46.40;25.15;;;5.80;99.90;;;;;;5101492;27;20076;-73
2022/01/16 09:53:53;;;;;;;43.00;25.17;;;5.80;99.90;;;;;;5114570;27;20047;-72
2022/01/16 09:56:18;;;;;;;42.90;26.45;;;5.80;99.90;;;;;;5117883;27;20437;-72
2022/01/16 09:58:44;;;;;;;40.33;21.52;;;5.80;99.90;;;;;;5099986;27;20035;-72
2022/01/16 10:01:10;;;;;;;47.35;26.20;;;5.90;99.90;;;;;;5100560;27;20035;-72
2022/01/16 10:03:38;;;;;;;40.92;24.67;;;5.90;99.90;;;;;;5118187;27;20088;-72
2022/01/16 10:06:10;;;;;;;44.78;25.40;;;5.90;99.90;;;;;;5117007;27;20096;-72
2022/01/16 10:08:37;;;;;;;42.50;23.25;;;5.90;99.90;;;;;;5116146;27;20034;-72
2022/01/16 10:11:21;;;;;;;42.78;23.52;;;6.00;99.90;;;;;;5100960;27;20080;-72
2022/01/16 10:13:57;;;;;;;42.20;22.80;;;6.00;99.90;;;;;;5100651;27;20045;-72
2022/01/16 10:16:27;;;;;;;41.80;24.08;;;6.00;99.90;;;;;;5118352;27;20084;-72
2022/01/16 10:18:53;;;;;;;38.53;22.40;;;6.10;99.90;;;;;;5099389;27;20088;-72
2022/01/16 10:21:34;;;;;;;33.35;20.48;;;6.10;99.90;;;;;;5116641;27;20039;-72
2022/01/16 10:24:15;;;;;;;32.50;21.15;;;6.20;99.90;;;;;;5114516;27;20092;-72
2022/01/16 10:26:41;;;;;;;35.53;21.33;;;6.30;99.90;;;;;;5111646;27;20039;-72
2022/01/16 10:29:07;;;;;;;35.35;20.67;;;6.30;99.90;;;;;;5099642;27;20121;-72
2022/01/16 10:31:32;;;;;;;37.30;21.83;;;6.30;99.90;;;;;;5117644;27;20071;-72
2022/01/16 10:33:58;;;;;;;30.02;17.75;;;6.30;99.90;;;;;;5116105;27;20070;-72
2022/01/16 10:36:37;;;;;;;33.53;20.10;;;6.40;99.90;;;;;;5098325;27;20039;-72
2022/01/16 10:39:08;;;;;;;34.33;20.80;;;6.40;99.90;;;;;;5107182;27;20051;-72
2022/01/16 10:41:34;;;;;;;29.33;18.30;;;6.40;99.90;;;;;;5123134;27;20065;-72
2022/01/16 10:44:00;;;;;;;29.13;17.63;;;6.50;99.90;;;;;;5100595;27;20292;-72
2022/01/16 10:46:26;;;;;;;32.90;19.60;;;6.50;99.90;;;;;;5097143;27;20031;-72
2022/01/16 10:49:15;;;;;;;34.80;19.20;;;6.60;99.90;;;;;;5099667;27;20067;-72
2022/01/16 10:51:41;;;;;;;33.58;18.20;;;6.60;99.90;;;;;;5100595;27;20097;-72
2022/01/16 10:54:29;;;;;;;32.63;19.67;;;6.60;99.90;;;;;;5111594;27;20437;-72
2022/01/16 10:56:55;;;;;;;35.35;20.20;;;6.60;99.90;;;;;;5100032;27;20042;-72
2022/01/16 10:59:22;;;;;;;36.58;21.15;;;6.50;99.90;;;;;;5095064;27;20395;-72
2022/01/16 11:02:07;;;;;;;31.67;17.88;;;6.40;99.90;;;;;;5109766;28;20035;-72
2022/01/16 11:04:32;;;;;;;36.08;19.73;;;6.50;99.90;;;;;;5079746;28;20036;-72
2022/01/16 11:07:02;;;;;;;32.70;19.63;;;6.50;99.90;;;;;;5097188;28;20039;-72
2022/01/16 11:09:30;;;;;;;37.10;20.40;;;6.50;99.90;;;;;;5096476;28;20039;-72
2022/01/16 11:11:59;;;;;;;28.77;16.88;;;6.50;99.90;;;;;;5079762;28;20372;-72
2022/01/16 11:14:29;;;;;;;27.08;17.33;;;6.40;99.90;;;;;;5096810;28;20043;-72
2022/01/16 11:16:56;;;;;;;29.88;16.95;;;6.50;99.90;;;;;;5096316;28;20077;-72
2022/01/16 11:19:24;;;;;;;29.67;17.92;;;6.60;99.90;;;;;;5079582;28;20092;-72
2022/01/16 11:22:03;;;;;;;30.08;18.13;;;6.50;99.90;;;;;;5079396;28;20392;-72
2022/01/16 11:24:36;;;;;;;29.38;16.60;;;6.50;99.90;;;;;;5096518;28;20123;-72
2022/01/16 11:27:02;;;;;;;27.27;16.65;;;6.50;99.90;;;;;;5096424;28;20392;-72
2022/01/16 11:29:29;;;;;;;30.25;15.50;;;6.50;99.90;;;;;;5079163;28;20031;-72
2022/01/16 11:31:56;;;;;;;26.75;14.18;;;6.50;99.90;;;;;;5096385;28;20495;-73
2022/01/16 11:34:22;;;;;;;29.60;15.20;;;6.50;99.90;;;;;;5079127;28;20051;-72
2022/01/16 11:36:48;;;;;;;28.50;15.73;;;6.50;99.90;;;;;;5096274;28;20097;-72
2022/01/16 11:39:14;;;;;;;22.83;13.63;;;6.50;99.90;;;;;;5095805;28;20051;-72
2022/01/16 11:41:52;;;;;;;22.85;11.90;;;6.60;99.90;;;;;;5107756;27;20480;-72
2022/01/16 11:44:30;;;;;;;25.50;12.15;;;6.60;99.90;;;;;;5099223;27;20043;-73
2022/01/16 11:46:59;;;;;;;25.83;12.52;;;6.60;99.90;;;;;;5115792;27;20058;-73
2022/01/16 11:49:35;;;;;;;21.83;12.05;;;6.50;99.90;;;;;;5116294;27;20074;-72
2022/01/16 11:52:19;;;;;;;19.85;10.18;;;6.60;99.90;;;;;;5114614;27;20042;-73
2022/01/16 11:54:47;;;;;;;20.65;10.50;;;6.70;99.90;;;;;;5078748;28;20043;-72
2022/01/16 11:57:29;;;;;;;23.23;10.95;;;6.60;99.90;;;;;;5085307;27;20108;-72
2022/01/16 12:00:09;;;;;;;;;;;6.60;99.90;;;;;;5116204;27;20130;-72
2022/01/16 12:02:46;;;;;;;18.77;9.27;;;6.60;99.90;;;;;;5115808;27;19919;-73
2022/01/16 12:05:24;;;;;;;20.83;10.18;;;6.60;99.90;;;;;;5099434;27;20384;-72
2022/01/16 12:07:52;;;;;;;17.42;8.98;;;6.60;99.90;;;;;;5116143;27;20078;-73
2022/01/16 12:10:38;;;;;;;23.05;9.73;;;6.70;99.90;;;;;;5115621;27;20074;-72
2022/01/16 12:13:04;;;;;;;19.48;9.75;;;6.70;99.90;;;;;;5115497;27;20057;-72
2022/01/16 12:15:32;;;;;;;24.08;8.95;;;6.60;99.90;;;;;;5115930;27;20039;-72
2022/01/16 12:17:58;;;;;;;17.85;7.90;;;6.70;99.90;;;;;;5115526;27;20487;-72
2022/01/16 12:20:26;;;;;;;17.02;8.55;;;6.70;99.90;;;;;;5089319;28;20046;-72
2022/01/16 12:23:00;;;;;;;15.88;7.78;;;6.70;99.90;;;;;;5113218;27;20053;-72
2022/01/16 12:26:02;;;;;;;18.23;8.43;;;6.80;99.90;;;;;;5098689;27;20121;-73
2022/01/16 12:28:28;;;;;;;18.40;7.65;;;6.70;99.90;;;;;;5081306;27;20061;-72
2022/01/16 12:30:59;;;;;;;18.33;8.00;;;6.70;99.90;;;;;;5098664;27;20118;-73
2022/01/16 12:33:43;;;;;;;15.65;7.97;;;6.70;99.90;;;;;;5115467;27;20088;-72
2022/01/16 12:36:31;;;;;;;17.08;7.43;;;6.70;99.90;;;;;;5116088;27;20074;-72
2022/01/16 12:39:04;;;;;;;17.17;8.23;;;6.70;99.90;;;;;;5095680;28;20055;-73
2022/01/16 12:41:45;;;;;;;17.63;7.85;;;6.70;99.90;;;;;;5095986;28;20031;-72
2022/01/16 12:44:14;;;;;;;19.40;8.50;;;6.70;99.90;;;;;;5093822;28;20039;-73
2022/01/16 12:46:43;;;;;;;16.77;7.55;;;6.70;99.90;;;;;;5091569;28;20040;-73
2022/01/16 12:49:15;;;;;;;17.02;7.20;;;6.80;99.90;;;;;;5109139;28;20036;-74
2022/01/16 12:51:43;;;;;;;16.75;7.50;;;6.90;99.90;;;;;;5111355;28;20039;-73
2022/01/16 12:54:14;;;;;;;17.63;8.18;;;6.90;99.90;;;;;;5109904;28;20061;-73
2022/01/16 12:56:44;;;;;;;17.33;7.47;;;6.80;99.90;;;;;;5093148;28;20093;-73
2022/01/16 12:59:11;;;;;;;14.77;7.47;;;6.80;99.90;;;;;;5094169;28;20031;-73
2022/01/16 13:01:43;;;;;;;15.70;6.75;;;6.90;99.90;;;;;;5095147;28;20028;-73
2022/01/16 13:04:27;;;;;;;17.15;7.05;;;7.00;99.90;;;;;;5094065;28;20077;-73
2022/01/16 13:06:58;;;;;;;14.45;6.30;;;7.00;99.90;;;;;;5112103;28;20480;-73
2022/01/16 13:09:24;;;;;;;16.15;6.72;;;7.10;99.90;;;;;;5112396;28;20043;-73
2022/01/16 13:11:52;;;;;;;13.63;5.88;;;7.10;99.90;;;;;;5112226;28;20127;-73
2022/01/16 13:14:25;;;;;;;15.15;6.72;;;7.10;99.90;;;;;;5111789;28;20093;-73
2022/01/16 13:16:53;;;;;;;13.70;6.63;;;7.10;99.90;;;;;;5095363;28;20088;-73
2022/01/16 13:19:24;;;;;;;18.58;7.22;;;7.10;99.90;;;;;;5094341;28;20039;-73
2022/01/16 13:22:04;;;;;;;17.20;7.47;;;7.00;99.90;;;;;;5092971;28;20081;-73
2022/01/16 13:24:31;;;;;;;14.48;7.38;;;7.00;99.90;;;;;;5110810;28;20061;-73
2022/01/16 13:26:57;;;;;;;14.85;7.30;;;7.00;99.90;;;;;;5111212;28;20126;-73
2022/01/16 13:29:24;;;;;;;15.50;7.50;;;7.00;99.90;;;;;;5111033;28;20035;-73